createdAt,value
2022-09-14T00:01:14.377Z,16.50
2022-09-14T00:03:39.452Z,16.50
2022-09-14T00:06:11.191Z,16.50
2022-09-14T00:08:38.211Z,16.50
2022-09-14T00:11:09.986Z,16.50
2022-09-14T00:13:36.942Z,16.50
2022-09-14T00:16:08.685Z,16.50
2022-09-14T00:18:35.916Z,16.50
2022-09-14T00:21:04.154Z,16.50
2022-09-14T00:23:31.019Z,16.50
2022-09-14T00:26:03.601Z,16.40
2022-09-14T00:28:30.503Z,16.40
2022-09-14T00:30:57.412Z,16.40
2022-09-14T00:33:24.376Z,16.40
2022-09-14T00:35:51.287Z,16.40
2022-09-14T00:38:18.127Z,16.30
2022-09-14T00:40:45.194Z,16.40
2022-09-14T00:43:15.047Z,16.40
2022-09-14T00:45:41.945Z,16.40
2022-09-14T00:48:08.989Z,16.40
2022-09-14T00:50:35.982Z,16.40
2022-09-14T00:53:02.973Z,16.40
2022-09-14T00:55:29.940Z,16.40
2022-09-14T00:57:56.990Z,16.30
2022-09-14T01:00:26.622Z,16.30
2022-09-14T01:02:53.513Z,16.30
2022-09-14T01:05:21.503Z,16.40
2022-09-14T01:08:29.834Z,16.40
2022-09-14T01:11:09.869Z,16.40
2022-09-14T01:13:57.096Z,16.40
2022-09-14T01:16:34.537Z,16.40
2022-09-14T01:19:04.622Z,16.30
2022-09-14T01:21:33.567Z,16.30
2022-09-14T01:24:27.011Z,16.30
2022-09-14T01:27:15.533Z,16.30
2022-09-14T01:30:09.180Z,16.20
2022-09-14T01:33:17.358Z,16.30
2022-09-14T01:35:52.934Z,16.30
2022-09-14T01:38:26.659Z,16.30
2022-09-14T01:40:53.559Z,16.30
2022-09-14T01:43:36.797Z,16.30
2022-09-14T01:46:07.445Z,16.30
2022-09-14T01:48:39.484Z,16.30
2022-09-14T01:51:10.190Z,16.20
2022-09-14T01:53:57.621Z,16.20
2022-09-14T01:56:39.038Z,16.20
2022-09-14T01:59:20.850Z,16.20
2022-09-14T02:01:54.554Z,16.20
2022-09-14T02:04:52.634Z,16.20
2022-09-14T02:07:19.479Z,16.10
2022-09-14T02:09:47.554Z,16.10
2022-09-14T02:12:14.615Z,16.10
2022-09-14T02:14:42.461Z,16.10
2022-09-14T02:17:09.401Z,16.20
2022-09-14T02:19:40.943Z,16.20
2022-09-14T02:22:07.815Z,16.20
2022-09-14T02:24:34.879Z,16.10
2022-09-14T02:27:01.707Z,16.10
2022-09-14T02:29:28.550Z,16.20
2022-09-14T02:32:04.889Z,16.20
2022-09-14T02:34:40.474Z,16.20
2022-09-14T02:37:16.388Z,16.10
2022-09-14T02:40:04.905Z,16.20
2022-09-14T02:42:46.922Z,16.20
2022-09-14T02:45:41.229Z,16.20
2022-09-14T02:48:26.155Z,16.20
2022-09-14T02:51:13.818Z,16.20
2022-09-14T02:53:53.450Z,16.20
2022-09-14T02:56:20.313Z,16.10
2022-09-14T02:58:47.280Z,16.10
2022-09-14T03:01:19.595Z,16.20
2022-09-14T03:03:46.565Z,16.20
2022-09-14T03:06:13.697Z,16.20
2022-09-14T03:08:40.829Z,16.20
2022-09-14T03:11:07.787Z,16.20
2022-09-14T03:13:35.882Z,16.20
2022-09-14T03:16:13.771Z,16.20
2022-09-14T03:18:40.880Z,16.20
2022-09-14T03:21:09.483Z,16.20
2022-09-14T03:23:40.784Z,16.20
2022-09-14T03:26:15.477Z,16.20
2022-09-14T03:28:42.558Z,16.20
2022-09-14T03:31:10.487Z,16.20
2022-09-14T03:33:37.523Z,16.20
2022-09-14T03:36:16.502Z,16.10
2022-09-14T03:38:47.887Z,16.10
2022-09-14T03:41:14.909Z,16.20
2022-09-14T03:43:42.465Z,16.20
2022-09-14T03:46:11.341Z,16.20
2022-09-14T03:48:38.414Z,16.20
2022-09-14T03:51:06.343Z,16.30
2022-09-14T03:53:33.324Z,16.20
2022-09-14T03:56:00.445Z,16.30
2022-09-14T03:58:28.209Z,16.20
2022-09-14T04:00:55.113Z,16.30
2022-09-14T04:03:22.047Z,16.30
2022-09-14T04:05:56.223Z,16.30
2022-09-14T04:08:23.471Z,16.20
2022-09-14T04:10:50.408Z,16.20
2022-09-14T04:13:17.416Z,16.20
2022-09-14T04:15:44.411Z,16.20
2022-09-14T04:18:11.274Z,16.20
2022-09-14T04:20:38.951Z,16.10
2022-09-14T04:23:05.905Z,16.10
2022-09-14T04:25:32.763Z,16.10
2022-09-14T04:28:19.130Z,16.20
2022-09-14T04:31:01.179Z,16.20
2022-09-14T04:33:32.082Z,16.30
2022-09-14T04:36:12.784Z,16.30
2022-09-14T04:38:40.006Z,16.30
2022-09-14T04:41:08.782Z,16.20
2022-09-14T04:43:35.838Z,16.30
2022-09-14T04:46:03.935Z,16.30
2022-09-14T04:48:36.075Z,16.30
2022-09-14T04:51:03.482Z,16.30
2022-09-14T04:53:30.420Z,16.30
2022-09-14T04:56:04.425Z,16.20
2022-09-14T04:58:31.507Z,16.20
2022-09-14T05:01:02.521Z,16.20
2022-09-14T05:03:29.450Z,16.20
2022-09-14T05:05:56.407Z,16.10
2022-09-14T05:08:23.314Z,16.10
2022-09-14T05:10:50.245Z,16.20
2022-09-14T05:13:17.175Z,16.10
2022-09-14T05:15:44.032Z,16.10
2022-09-14T05:18:10.999Z,16.10
2022-09-14T05:20:39.115Z,16.10
2022-09-14T05:23:06.225Z,16.00
2022-09-14T05:25:33.085Z,16.10
2022-09-14T05:27:59.951Z,16.00
2022-09-14T05:30:26.855Z,16.00
2022-09-14T05:32:57.531Z,16.00
2022-09-14T05:35:25.134Z,16.00
2022-09-14T05:37:52.047Z,16.00
2022-09-14T05:40:19.084Z,15.80
2022-09-14T05:42:45.995Z,15.80
2022-09-14T05:45:12.859Z,15.80
2022-09-14T05:47:39.787Z,15.80
2022-09-14T05:50:08.587Z,15.80
2022-09-14T05:52:35.535Z,15.80
2022-09-14T05:55:04.815Z,15.80
2022-09-14T05:57:31.703Z,15.80
2022-09-14T05:59:58.530Z,15.80
2022-09-14T06:02:25.737Z,15.80
2022-09-14T06:04:52.734Z,15.90
2022-09-14T06:07:19.596Z,15.90
2022-09-14T06:09:46.457Z,15.90
2022-09-14T06:12:14.753Z,15.90
2022-09-14T06:14:41.573Z,15.90
2022-09-14T06:17:08.476Z,15.90
2022-09-14T06:19:35.339Z,15.90
2022-09-14T06:22:02.308Z,16.00
2022-09-14T06:24:29.442Z,16.00
2022-09-14T06:26:56.381Z,16.00
2022-09-14T06:29:23.355Z,15.90
2022-09-14T06:31:50.244Z,15.90
2022-09-14T06:34:17.176Z,15.90
2022-09-14T06:36:44.962Z,15.80
2022-09-14T06:39:12.158Z,15.90
2022-09-14T06:41:39.046Z,15.90
2022-09-14T06:44:13.009Z,16.00
2022-09-14T06:46:39.955Z,15.90
2022-09-14T06:49:08.655Z,15.90
2022-09-14T06:51:37.138Z,16.00
2022-09-14T06:54:04.320Z,16.00
2022-09-14T06:56:38.704Z,16.00
2022-09-14T06:59:10.832Z,16.10
2022-09-14T07:01:37.907Z,16.00
2022-09-14T07:04:05.375Z,16.00
2022-09-14T07:06:39.067Z,16.10
2022-09-14T07:09:06.011Z,16.10
2022-09-14T07:11:32.995Z,16.10
2022-09-14T07:14:00.114Z,16.10
2022-09-14T07:16:27.565Z,16.10
2022-09-14T07:18:55.559Z,16.20
2022-09-14T07:21:23.295Z,16.20
2022-09-14T07:23:50.630Z,16.20
2022-09-14T07:26:22.507Z,16.20
2022-09-14T07:29:00.756Z,16.30
2022-09-14T07:31:32.572Z,16.40
2022-09-14T07:34:01.932Z,16.40
2022-09-14T07:36:32.743Z,16.40
2022-09-14T07:39:05.571Z,16.40
2022-09-14T07:41:34.283Z,16.30
2022-09-14T07:44:02.366Z,16.40
2022-09-14T07:46:30.478Z,16.40
2022-09-14T07:48:59.407Z,16.40
2022-09-14T07:51:26.599Z,16.40
2022-09-14T07:53:53.483Z,16.50
2022-09-14T07:56:21.851Z,16.50
2022-09-14T07:58:53.980Z,16.50
2022-09-14T08:01:22.204Z,16.50
2022-09-14T08:03:49.167Z,16.50
2022-09-14T08:06:18.144Z,16.40
2022-09-14T08:08:45.856Z,16.50
2022-09-14T08:11:32.226Z,16.60
2022-09-14T08:14:00.186Z,16.60
2022-09-14T08:16:28.089Z,16.70
2022-09-14T08:18:56.251Z,16.70
2022-09-14T08:21:23.305Z,16.80
2022-09-14T08:23:50.427Z,16.80
2022-09-14T08:26:21.828Z,16.90
2022-09-14T08:28:50.507Z,17.00
2022-09-14T08:31:21.929Z,17.00
2022-09-14T08:33:50.785Z,17.10
2022-09-14T08:36:19.034Z,17.10
2022-09-14T08:38:45.935Z,17.10
2022-09-14T08:41:20.246Z,17.20
2022-09-14T08:43:47.049Z,17.30
2022-09-14T08:46:28.366Z,17.40
2022-09-14T08:48:55.331Z,17.50
2022-09-14T08:51:22.138Z,17.50
2022-09-14T08:53:48.994Z,17.50
2022-09-14T08:56:24.522Z,17.60
2022-09-14T08:59:06.487Z,17.60
2022-09-14T09:01:59.294Z,17.70
2022-09-14T09:04:35.379Z,17.70
2022-09-14T09:07:29.082Z,17.80
2022-09-14T09:09:57.060Z,17.70
2022-09-14T09:12:38.439Z,17.80
2022-09-14T09:15:27.527Z,17.80
2022-09-14T09:18:03.654Z,17.90
2022-09-14T09:20:35.686Z,17.90
2022-09-14T09:23:16.595Z,17.90
2022-09-14T09:25:59.583Z,17.90
2022-09-14T09:28:28.546Z,17.90
2022-09-14T09:30:55.796Z,18.10
2022-09-14T09:33:31.209Z,18.20
2022-09-14T09:36:15.162Z,18.30
2022-09-14T09:38:42.255Z,18.20
2022-09-14T09:41:18.727Z,18.20
2022-09-14T09:43:59.526Z,18.30
2022-09-14T09:46:28.655Z,18.40
2022-09-14T09:48:55.589Z,18.50
2022-09-14T09:51:25.695Z,18.50
2022-09-14T09:53:57.306Z,18.30
2022-09-14T09:56:31.922Z,18.20
2022-09-14T09:58:58.882Z,18.30
2022-09-14T10:01:29.786Z,18.40
2022-09-14T10:04:04.012Z,18.40
2022-09-14T10:06:31.184Z,18.30
2022-09-14T10:08:58.208Z,18.30
2022-09-14T10:11:32.233Z,18.30
2022-09-14T10:13:59.209Z,18.30
2022-09-14T10:16:30.067Z,18.30
2022-09-14T10:18:59.390Z,18.40
2022-09-14T10:21:26.443Z,18.60
2022-09-14T10:24:27.262Z,18.70
2022-09-14T10:26:54.110Z,18.70
2022-09-14T10:29:28.899Z,18.70
2022-09-14T10:32:06.392Z,18.60
2022-09-14T10:34:33.998Z,18.60
2022-09-14T10:37:43.462Z,18.70
2022-09-14T10:40:15.846Z,18.60
2022-09-14T10:42:50.489Z,18.50
2022-09-14T10:45:31.574Z,18.40
2022-09-14T10:48:04.198Z,18.40
2022-09-14T10:50:52.802Z,18.40
2022-09-14T10:53:54.206Z,18.50
2022-09-14T10:56:42.416Z,18.60
2022-09-14T10:59:35.326Z,18.50
2022-09-14T11:02:39.481Z,18.50
2022-09-14T11:05:12.367Z,18.50
2022-09-14T11:07:51.976Z,18.50
2022-09-14T11:10:21.421Z,18.50
2022-09-14T11:13:07.124Z,18.50
2022-09-14T11:15:41.281Z,18.70
2022-09-14T11:18:33.628Z,18.90
2022-09-14T11:21:09.609Z,19.10
2022-09-14T11:23:39.270Z,19.30
2022-09-14T11:26:18.280Z,19.10
2022-09-14T11:29:19.175Z,19.20
2022-09-14T11:32:19.224Z,19.20
2022-09-14T11:34:47.929Z,19.30
2022-09-14T11:37:16.712Z,19.70
2022-09-14T11:40:03.749Z,20.10
2022-09-14T11:42:57.513Z,20.10
2022-09-14T11:45:26.707Z,20.20
2022-09-14T11:48:41.256Z,20.10
2022-09-14T11:51:09.460Z,20.10
2022-09-14T11:53:36.365Z,20.10
2022-09-14T11:56:03.273Z,20.30
2022-09-14T11:58:30.959Z,20.40
2022-09-14T12:01:37.054Z,20.60
2022-09-14T12:04:08.285Z,20.70
2022-09-14T12:06:38.294Z,20.70
2022-09-14T12:09:17.330Z,20.80
2022-09-14T12:11:44.937Z,20.80
2022-09-14T12:14:27.569Z,20.90
2022-09-14T12:17:38.346Z,21.00
2022-09-14T12:20:22.506Z,20.90
2022-09-14T12:22:50.323Z,21.00
2022-09-14T12:25:22.457Z,20.80
2022-09-14T12:27:49.459Z,20.80
2022-09-14T12:30:39.955Z,20.80
2022-09-14T12:33:31.048Z,20.90
2022-09-14T12:35:58.495Z,21.10
2022-09-14T12:38:31.581Z,21.20
2022-09-14T12:40:59.892Z,21.30
2022-09-14T12:43:33.095Z,21.30
2022-09-14T12:46:05.463Z,21.20
2022-09-14T12:48:47.935Z,21.20
2022-09-14T12:51:26.856Z,21.40
2022-09-14T12:54:09.073Z,21.50
2022-09-14T12:56:57.917Z,21.70
2022-09-14T13:00:02.292Z,21.90
2022-09-14T13:02:53.389Z,21.90
2022-09-14T13:05:23.792Z,21.90
2022-09-14T13:07:50.873Z,21.70
2022-09-14T13:10:32.609Z,21.60
2022-09-14T13:13:01.293Z,21.50
2022-09-14T13:15:54.597Z,21.40
2022-09-14T13:18:21.554Z,21.40
2022-09-14T13:20:53.099Z,21.50
2022-09-14T13:23:21.186Z,21.50
2022-09-14T13:25:48.084Z,21.40
2022-09-14T13:28:16.766Z,21.20
2022-09-14T13:30:44.499Z,21.00
2022-09-14T13:33:16.175Z,20.90
2022-09-14T13:35:48.007Z,20.80
2022-09-14T13:38:30.122Z,20.80
2022-09-14T13:41:03.491Z,20.90
2022-09-14T13:43:30.347Z,21.00
2022-09-14T13:45:57.504Z,21.00
2022-09-14T13:48:24.489Z,21.30
2022-09-14T13:50:51.823Z,21.40
2022-09-14T13:53:38.543Z,21.50
2022-09-14T13:56:33.804Z,21.50
2022-09-14T13:59:12.679Z,21.50
2022-09-14T14:01:41.860Z,21.40
2022-09-14T14:04:24.203Z,21.30
2022-09-14T14:07:15.725Z,21.20
2022-09-14T14:09:56.279Z,21.10
2022-09-14T14:12:28.052Z,21.20
2022-09-14T14:14:59.034Z,21.30
2022-09-14T14:17:36.761Z,21.30
2022-09-14T14:20:34.611Z,21.30
2022-09-14T14:23:13.268Z,21.30
2022-09-14T14:25:45.649Z,21.40
2022-09-14T14:28:25.540Z,21.40
2022-09-14T14:30:53.420Z,21.30
2022-09-14T14:33:20.445Z,21.20
2022-09-14T14:35:48.450Z,21.20
2022-09-14T14:38:16.354Z,21.20
2022-09-14T14:40:43.519Z,21.20
2022-09-14T14:43:11.808Z,21.30
2022-09-14T14:45:39.664Z,21.30
2022-09-14T14:48:06.584Z,21.40
2022-09-14T14:50:34.253Z,21.50
2022-09-14T14:53:01.661Z,21.60
2022-09-14T14:55:31.327Z,21.80
2022-09-14T14:58:07.143Z,21.90
2022-09-14T15:00:35.392Z,21.90
2022-09-14T15:03:02.429Z,22.00
2022-09-14T15:05:29.341Z,22.00
2022-09-14T15:07:56.255Z,22.00
2022-09-14T15:10:25.253Z,22.00
2022-09-14T15:12:52.520Z,21.90
2022-09-14T15:15:21.691Z,21.80
2022-09-14T15:17:48.573Z,21.70
2022-09-14T15:20:15.713Z,21.60
2022-09-14T15:22:42.847Z,21.50
2022-09-14T15:25:10.618Z,21.40
2022-09-14T15:27:37.609Z,21.30
2022-09-14T15:30:05.479Z,21.20
2022-09-14T15:32:32.381Z,21.20
2022-09-14T15:34:59.383Z,21.10
2022-09-14T15:37:26.286Z,21.00
2022-09-14T15:39:53.293Z,21.10
2022-09-14T15:42:20.282Z,21.00
2022-09-14T15:44:47.216Z,20.90
2022-09-14T15:47:17.199Z,20.90
2022-09-14T15:49:44.287Z,20.90
2022-09-14T15:52:11.484Z,20.80
2022-09-14T15:54:38.985Z,20.80
2022-09-14T15:57:10.181Z,20.80
2022-09-14T15:59:37.145Z,20.80
2022-09-14T16:02:04.239Z,20.70
2022-09-14T16:04:36.597Z,20.70
2022-09-14T16:07:05.399Z,20.70
2022-09-14T16:09:32.271Z,20.70
2022-09-14T16:12:01.722Z,20.60
2022-09-14T16:14:29.034Z,20.60
2022-09-14T16:16:55.963Z,20.60
2022-09-14T16:19:22.927Z,20.60
2022-09-14T16:21:53.592Z,20.60
2022-09-14T16:24:21.318Z,20.60
2022-09-14T16:26:48.179Z,20.60
2022-09-14T16:29:16.342Z,20.50
2022-09-14T16:31:44.144Z,20.50
2022-09-14T16:34:16.850Z,20.50
2022-09-14T16:36:43.928Z,20.50
2022-09-14T16:39:14.034Z,20.50
2022-09-14T16:41:42.291Z,20.40
2022-09-14T16:44:29.482Z,20.30
2022-09-14T16:46:57.852Z,20.30
2022-09-14T16:49:27.893Z,20.20
2022-09-14T16:51:56.024Z,20.20
2022-09-14T16:54:23.730Z,20.20
2022-09-14T16:56:50.829Z,20.20
2022-09-14T16:59:18.001Z,20.20
2022-09-14T17:01:45.728Z,20.20
2022-09-14T17:04:15.502Z,20.20
2022-09-14T17:06:43.769Z,20.10
2022-09-14T17:09:13.212Z,20.10
2022-09-14T17:11:40.482Z,20.10
2022-09-14T17:14:07.963Z,20.00
2022-09-14T17:16:34.977Z,20.00
2022-09-14T17:19:03.204Z,19.90
2022-09-14T17:21:35.186Z,19.90
2022-09-14T17:24:02.627Z,19.80
2022-09-14T17:26:29.783Z,19.80
2022-09-14T17:28:57.744Z,19.70
2022-09-14T17:31:31.535Z,19.70
2022-09-14T17:33:59.342Z,19.60
2022-09-14T17:36:26.430Z,19.60
2022-09-14T17:38:55.473Z,19.50
2022-09-14T17:41:23.179Z,19.40
2022-09-14T17:43:56.662Z,19.30
2022-09-14T17:46:23.737Z,19.30
2022-09-14T17:48:51.005Z,19.20
2022-09-14T17:51:22.466Z,19.10
2022-09-14T17:53:50.978Z,19.10
2022-09-14T17:56:23.357Z,18.90
2022-09-14T17:58:58.054Z,18.90
2022-09-14T18:01:25.070Z,18.80
2022-09-14T18:03:54.256Z,18.70
2022-09-14T18:06:23.023Z,18.60
2022-09-14T18:08:57.149Z,18.60
2022-09-14T18:11:24.145Z,18.50
2022-09-14T18:13:51.293Z,18.40
2022-09-14T18:16:19.414Z,18.30
2022-09-14T18:18:46.519Z,18.20
2022-09-14T18:21:14.952Z,18.10
2022-09-14T18:23:41.795Z,18.00
2022-09-14T18:26:08.730Z,18.00
2022-09-14T18:28:35.882Z,17.90
2022-09-14T18:31:10.049Z,17.90
2022-09-14T18:33:37.057Z,17.90
2022-09-14T18:36:05.523Z,17.90
2022-09-14T18:38:32.558Z,17.90
2022-09-14T18:41:04.247Z,17.90
2022-09-14T18:43:31.540Z,17.80
2022-09-14T18:45:58.710Z,17.80
2022-09-14T18:48:25.610Z,17.70
2022-09-14T18:50:52.543Z,17.70
2022-09-14T18:53:19.501Z,17.60
2022-09-14T18:55:46.377Z,17.50
2022-09-14T18:58:13.281Z,17.50
2022-09-14T19:00:45.715Z,17.40
2022-09-14T19:03:12.771Z,17.30
2022-09-14T19:05:41.123Z,17.20
2022-09-14T19:08:10.092Z,17.20
2022-09-14T19:10:37.746Z,17.10
2022-09-14T19:13:05.437Z,17.10
2022-09-14T19:15:33.509Z,17.10
2022-09-14T19:18:00.406Z,17.00
2022-09-14T19:20:43.186Z,17.00
2022-09-14T19:23:14.139Z,17.00
2022-09-14T19:25:40.986Z,17.00
2022-09-14T19:28:07.971Z,17.00
2022-09-14T19:30:36.526Z,17.00
2022-09-14T19:33:03.453Z,17.00
2022-09-14T19:35:30.396Z,17.10
2022-09-14T19:37:57.890Z,17.10
2022-09-14T19:40:24.988Z,17.20
2022-09-14T19:42:52.096Z,17.20
2022-09-14T19:45:19.251Z,17.20
2022-09-14T19:47:46.183Z,17.20
2022-09-14T19:50:13.095Z,17.30
2022-09-14T19:52:39.979Z,17.30
2022-09-14T19:55:07.099Z,17.40
2022-09-14T19:57:36.726Z,17.40
2022-09-14T20:00:05.369Z,17.40
2022-09-14T20:02:32.337Z,17.40
2022-09-14T20:04:59.510Z,17.40
2022-09-14T20:07:26.438Z,17.40
2022-09-14T20:09:53.547Z,17.30
2022-09-14T20:12:20.475Z,17.30
2022-09-14T20:14:47.317Z,17.20
2022-09-14T20:17:14.231Z,17.20
2022-09-14T20:19:41.934Z,17.20
2022-09-14T20:22:09.235Z,17.20
2022-09-14T20:24:38.160Z,17.20
2022-09-14T20:27:05.040Z,17.10
2022-09-14T20:29:34.113Z,17.10
2022-09-14T20:32:01.438Z,17.10
2022-09-14T20:34:28.459Z,17.00
2022-09-14T20:36:55.513Z,17.00
2022-09-14T20:39:22.965Z,16.90
2022-09-14T20:41:49.942Z,16.90
2022-09-14T20:44:22.005Z,16.90
2022-09-14T20:46:49.203Z,16.90
2022-09-14T20:49:18.501Z,16.80
2022-09-14T20:51:45.551Z,16.80
2022-09-14T20:54:13.941Z,16.80
2022-09-14T20:56:40.923Z,16.80
2022-09-14T20:59:09.751Z,16.70
2022-09-14T21:01:37.828Z,16.70
2022-09-14T21:04:09.141Z,16.70
2022-09-14T21:06:39.353Z,16.70
2022-09-14T21:09:07.233Z,16.60
2022-09-14T21:11:34.158Z,16.60
2022-09-14T21:14:01.129Z,16.60
2022-09-14T21:16:37.024Z,16.50
2022-09-14T21:19:23.878Z,16.50
2022-09-14T21:21:50.971Z,16.40
2022-09-14T21:24:18.922Z,16.40
2022-09-14T21:26:46.012Z,16.40
2022-09-14T21:29:15.493Z,16.40
2022-09-14T21:31:42.441Z,16.40
2022-09-14T21:34:10.343Z,16.40
2022-09-14T21:36:40.181Z,16.30
2022-09-14T21:39:19.369Z,16.30
2022-09-14T21:41:46.405Z,16.20
2022-09-14T21:44:13.775Z,16.20
2022-09-14T21:46:40.978Z,16.20
2022-09-14T21:49:11.164Z,16.10
2022-09-14T21:51:38.087Z,16.10
2022-09-14T21:54:06.550Z,16.00
2022-09-14T21:56:35.004Z,15.90
2022-09-14T21:59:03.992Z,15.90
2022-09-14T22:01:31.011Z,15.80
2022-09-14T22:03:57.987Z,15.80
2022-09-14T22:06:27.403Z,15.70
2022-09-14T22:08:54.538Z,15.70
2022-09-14T22:11:23.593Z,15.60
2022-09-14T22:13:54.476Z,15.60
2022-09-14T22:16:21.497Z,15.50
2022-09-14T22:18:50.813Z,15.40
2022-09-14T22:21:17.882Z,15.40
2022-09-14T22:23:49.629Z,15.30
2022-09-14T22:26:16.466Z,15.30
2022-09-14T22:28:43.342Z,15.20
2022-09-14T22:31:10.235Z,15.20
2022-09-14T22:33:37.143Z,15.20
2022-09-14T22:36:04.414Z,15.10
2022-09-14T22:38:34.782Z,15.10
2022-09-14T22:41:06.449Z,15.10
2022-09-14T22:43:34.062Z,15.10
2022-09-14T22:46:01.710Z,15.10
2022-09-14T22:48:28.946Z,15.20
2022-09-14T22:50:56.460Z,15.20
2022-09-14T22:53:23.947Z,15.20
2022-09-14T22:55:51.262Z,15.20
2022-09-14T22:58:19.965Z,15.30
2022-09-14T23:00:47.154Z,15.30
2022-09-14T23:03:14.479Z,15.40
2022-09-14T23:05:47.971Z,15.40
2022-09-14T23:08:14.921Z,15.40
2022-09-14T23:10:41.830Z,15.40
2022-09-14T23:13:08.678Z,15.50
2022-09-14T23:15:39.434Z,15.50
2022-09-14T23:18:06.858Z,15.50
2022-09-14T23:20:38.140Z,15.50
2022-09-14T23:23:05.094Z,15.60
2022-09-14T23:25:34.632Z,15.50
2022-09-14T23:28:03.000Z,15.60
2022-09-14T23:30:29.974Z,15.60
2022-09-14T23:32:58.400Z,15.60
2022-09-14T23:35:25.650Z,15.60
2022-09-14T23:37:52.576Z,15.60
2022-09-14T23:40:19.806Z,15.50
2022-09-14T23:42:47.200Z,15.50
2022-09-14T23:45:14.726Z,15.50
2022-09-14T23:47:41.711Z,15.50
2022-09-14T23:50:09.152Z,15.50
2022-09-14T23:52:36.970Z,15.50
2022-09-14T23:55:04.533Z,15.50
2022-09-14T23:57:31.466Z,15.50
2022-09-14T23:59:58.645Z,15.50
